createdAt,value
2022-12-09T00:01:35.181Z,3.80
2022-12-09T00:04:02.177Z,3.80
2022-12-09T00:06:30.862Z,3.80
2022-12-09T00:08:58.383Z,3.80
2022-12-09T00:11:25.814Z,3.90
2022-12-09T00:13:54.374Z,3.90
2022-12-09T00:16:22.559Z,3.90
2022-12-09T00:18:49.715Z,3.90
2022-12-09T00:21:20.671Z,4.00
2022-12-09T00:23:48.189Z,4.00
2022-12-09T00:26:15.914Z,4.00
2022-12-09T00:28:43.696Z,4.00
2022-12-09T00:31:14.181Z,3.90
2022-12-09T00:33:41.356Z,4.00
2022-12-09T00:36:17.134Z,4.00
2022-12-09T00:38:43.958Z,4.00
2022-12-09T00:41:12.144Z,4.00
2022-12-09T00:43:39.747Z,4.00
2022-12-09T00:46:06.493Z,4.00
2022-12-09T00:48:38.652Z,4.00
2022-12-09T00:51:07.201Z,4.00
2022-12-09T00:53:33.948Z,4.00
2022-12-09T00:56:00.872Z,4.00
2022-12-09T00:58:27.660Z,4.00
2022-12-09T01:00:54.403Z,4.10
2022-12-09T01:03:21.990Z,3.90
2022-12-09T01:05:49.361Z,3.90
2022-12-09T01:08:17.034Z,4.00
2022-12-09T01:10:45.315Z,4.10
2022-12-09T01:13:15.837Z,4.10
2022-12-09T01:15:43.281Z,4.10
2022-12-09T01:18:11.169Z,3.90
2022-12-09T01:20:38.311Z,3.80
2022-12-09T01:23:05.263Z,3.90
2022-12-09T01:25:32.299Z,3.80
2022-12-09T01:27:59.140Z,3.90
2022-12-09T01:30:25.920Z,3.90
2022-12-09T01:32:52.707Z,3.90
2022-12-09T01:35:19.905Z,3.80
2022-12-09T01:37:46.790Z,3.80
2022-12-09T01:40:16.951Z,3.90
2022-12-09T01:42:44.235Z,4.00
2022-12-09T01:45:20.211Z,4.10
2022-12-09T01:47:48.826Z,4.10
2022-12-09T01:50:16.774Z,4.10
2022-12-09T01:52:44.709Z,4.10
2022-12-09T01:55:12.261Z,4.00
2022-12-09T01:57:39.709Z,4.10
2022-12-09T02:00:07.896Z,4.20
2022-12-09T02:02:36.931Z,4.20
2022-12-09T02:05:05.244Z,4.20
2022-12-09T02:07:34.415Z,4.20
2022-12-09T02:10:03.256Z,4.30
2022-12-09T02:12:51.852Z,4.30
2022-12-09T02:15:24.254Z,4.10
2022-12-09T02:17:57.866Z,4.10
2022-12-09T02:20:58.776Z,4.10
2022-12-09T02:23:41.813Z,4.10
2022-12-09T02:26:11.498Z,4.10
2022-12-09T02:28:59.707Z,4.10
2022-12-09T02:31:52.768Z,4.00
2022-12-09T02:34:21.645Z,4.00
2022-12-09T02:37:29.156Z,3.90
2022-12-09T02:40:21.862Z,4.00
2022-12-09T02:42:49.527Z,4.00
2022-12-09T02:45:18.127Z,3.90
2022-12-09T02:47:50.081Z,3.90
2022-12-09T02:50:22.314Z,3.90
2022-12-09T02:52:51.402Z,3.90
2022-12-09T02:55:20.645Z,3.90
2022-12-09T02:57:51.135Z,3.90
2022-12-09T03:00:18.474Z,3.90
2022-12-09T03:02:49.755Z,3.90
2022-12-09T03:05:25.459Z,3.90
2022-12-09T03:08:07.482Z,3.90
2022-12-09T03:10:45.628Z,3.90
2022-12-09T03:13:52.534Z,3.90
2022-12-09T03:16:31.112Z,3.90
2022-12-09T03:19:17.488Z,3.80
2022-12-09T03:21:47.390Z,3.80
2022-12-09T03:24:20.812Z,3.70
2022-12-09T03:26:49.791Z,3.70
2022-12-09T03:29:19.940Z,3.60
2022-12-09T03:31:48.618Z,3.60
2022-12-09T03:34:20.067Z,3.50
2022-12-09T03:36:49.366Z,3.50
2022-12-09T03:39:19.835Z,3.40
2022-12-09T03:41:55.672Z,3.40
2022-12-09T03:44:35.021Z,3.30
2022-12-09T03:47:04.119Z,3.20
2022-12-09T03:49:31.972Z,3.20
2022-12-09T03:52:10.596Z,3.10
2022-12-09T03:54:44.136Z,3.10
2022-12-09T03:57:18.931Z,3.00
2022-12-09T03:59:52.730Z,3.00
2022-12-09T04:02:20.368Z,2.90
2022-12-09T04:04:47.558Z,2.90
2022-12-09T04:07:14.440Z,2.80
2022-12-09T04:09:41.466Z,2.80
2022-12-09T04:12:08.441Z,2.80
2022-12-09T04:14:35.296Z,2.80
2022-12-09T04:17:02.347Z,2.80
2022-12-09T04:19:29.086Z,2.70
2022-12-09T04:21:56.086Z,2.70
2022-12-09T04:24:23.065Z,2.70
2022-12-09T04:26:49.693Z,2.70
2022-12-09T04:29:16.530Z,2.60
2022-12-09T04:31:43.231Z,2.50
2022-12-09T04:34:10.441Z,2.50
2022-12-09T04:36:38.138Z,2.50
2022-12-09T04:39:05.407Z,2.50
2022-12-09T04:41:32.333Z,2.50
2022-12-09T04:43:59.327Z,2.50
2022-12-09T04:46:26.186Z,2.50
2022-12-09T04:48:53.289Z,2.50
2022-12-09T04:51:20.233Z,2.50
2022-12-09T04:53:47.111Z,2.50
2022-12-09T04:56:21.461Z,2.50
2022-12-09T04:58:49.993Z,2.50
2022-12-09T05:01:22.597Z,2.50
2022-12-09T05:03:54.144Z,2.50
2022-12-09T05:06:22.263Z,2.50
2022-12-09T05:08:49.875Z,2.50
2022-12-09T05:11:18.713Z,2.40
2022-12-09T05:13:46.139Z,2.40
2022-12-09T05:16:16.910Z,2.30
2022-12-09T05:18:45.759Z,2.30
2022-12-09T05:21:15.135Z,2.40
2022-12-09T05:23:42.401Z,2.40
2022-12-09T05:26:11.474Z,2.40
2022-12-09T05:28:38.967Z,2.30
2022-12-09T05:31:13.113Z,2.30
2022-12-09T05:33:40.545Z,2.30
2022-12-09T05:36:12.420Z,2.30
2022-12-09T05:38:39.816Z,2.20
2022-12-09T05:41:07.912Z,2.20
2022-12-09T05:43:35.669Z,2.20
2022-12-09T05:46:04.937Z,2.30
2022-12-09T05:48:32.140Z,2.20
2022-12-09T05:51:05.330Z,2.20
2022-12-09T05:53:33.472Z,2.20
2022-12-09T05:56:00.382Z,2.30
2022-12-09T05:58:27.706Z,2.30
2022-12-09T06:00:58.051Z,2.30
2022-12-09T06:03:25.339Z,2.30
2022-12-09T06:05:52.649Z,2.40
2022-12-09T06:08:19.893Z,2.40
2022-12-09T06:10:47.217Z,2.40
2022-12-09T06:13:14.718Z,2.40
2022-12-09T06:15:41.653Z,2.40
2022-12-09T06:18:09.001Z,2.40
2022-12-09T06:20:40.458Z,2.30
2022-12-09T06:23:07.387Z,2.30
2022-12-09T06:25:34.352Z,2.30
2022-12-09T06:28:01.387Z,2.20
2022-12-09T06:30:28.543Z,2.20
2022-12-09T06:32:55.656Z,2.20
2022-12-09T06:35:22.821Z,2.10
2022-12-09T06:37:52.842Z,2.10
2022-12-09T06:40:22.128Z,2.10
2022-12-09T06:42:52.046Z,2.10
2022-12-09T06:45:19.949Z,2.00
2022-12-09T06:47:47.445Z,2.00
2022-12-09T06:50:14.823Z,2.00
2022-12-09T06:52:42.227Z,2.00
2022-12-09T06:55:10.037Z,1.90
2022-12-09T06:57:37.051Z,1.90
2022-12-09T07:00:06.015Z,1.90
2022-12-09T07:02:36.087Z,1.90
2022-12-09T07:05:04.488Z,1.90
2022-12-09T07:07:31.677Z,1.80
2022-12-09T07:09:59.003Z,1.80
2022-12-09T07:12:26.049Z,1.80
2022-12-09T07:14:52.801Z,1.70
2022-12-09T07:17:20.979Z,1.70
2022-12-09T07:19:48.302Z,1.80
2022-12-09T07:22:15.259Z,1.80
2022-12-09T07:24:42.577Z,1.80
2022-12-09T07:27:18.648Z,1.80
2022-12-09T07:29:47.036Z,1.70
2022-12-09T07:32:14.666Z,1.70
2022-12-09T07:34:42.069Z,1.70
2022-12-09T07:37:09.182Z,1.70
2022-12-09T07:39:36.129Z,1.80
2022-12-09T07:42:03.221Z,1.80
2022-12-09T07:44:30.404Z,1.90
2022-12-09T07:46:57.501Z,2.00
2022-12-09T07:49:24.917Z,2.10
2022-12-09T07:51:52.174Z,2.10
2022-12-09T07:54:19.875Z,2.10
2022-12-09T07:56:47.076Z,2.20
2022-12-09T07:59:15.537Z,2.20
2022-12-09T08:01:43.759Z,2.20
2022-12-09T08:04:11.128Z,2.30
2022-12-09T08:06:38.371Z,2.30
2022-12-09T08:09:09.095Z,2.30
2022-12-09T08:11:36.807Z,2.40
2022-12-09T08:14:11.273Z,2.40
2022-12-09T08:16:40.779Z,2.50
2022-12-09T08:19:08.571Z,2.40
2022-12-09T08:21:36.774Z,2.40
2022-12-09T08:24:06.057Z,2.50
2022-12-09T08:26:34.098Z,2.50
2022-12-09T08:29:01.210Z,2.50
2022-12-09T08:31:29.944Z,2.60
2022-12-09T08:33:57.796Z,2.60
2022-12-09T08:36:27.410Z,2.60
2022-12-09T08:38:55.448Z,2.60
2022-12-09T08:41:38.683Z,2.60
2022-12-09T08:44:09.687Z,2.60
2022-12-09T08:46:38.487Z,2.60
2022-12-09T08:49:06.611Z,2.60
2022-12-09T08:51:34.302Z,2.60
2022-12-09T08:54:02.616Z,2.60
2022-12-09T08:56:29.974Z,2.60
2022-12-09T08:58:57.248Z,2.50
2022-12-09T09:01:26.856Z,2.40
2022-12-09T09:03:53.965Z,2.50
2022-12-09T09:06:21.138Z,2.50
2022-12-09T09:08:48.732Z,2.50
2022-12-09T09:11:19.742Z,2.50
2022-12-09T09:13:48.915Z,2.50
2022-12-09T09:16:19.285Z,2.50
2022-12-09T09:18:46.539Z,2.50
2022-12-09T09:21:16.243Z,2.50
2022-12-09T09:23:43.960Z,2.50
2022-12-09T09:26:16.584Z,2.60
2022-12-09T09:28:43.894Z,2.60
2022-12-09T09:31:13.472Z,2.60
2022-12-09T09:33:41.593Z,2.70
2022-12-09T09:36:11.629Z,2.80
2022-12-09T09:38:38.729Z,2.90
2022-12-09T09:41:20.345Z,3.00
2022-12-09T09:43:47.839Z,3.10
2022-12-09T09:46:38.085Z,3.20
2022-12-09T09:49:12.245Z,3.30
2022-12-09T09:51:39.318Z,3.50
2022-12-09T09:54:09.944Z,3.50
2022-12-09T09:56:46.652Z,3.60
2022-12-09T10:00:07.088Z,3.60
2022-12-09T10:02:43.974Z,3.60
2022-12-09T10:05:16.698Z,3.40
2022-12-09T10:07:53.697Z,3.30
2022-12-09T10:10:44.309Z,3.10
2022-12-09T10:13:24.232Z,3.10
2022-12-09T10:16:06.366Z,3.10
2022-12-09T10:18:38.787Z,3.10
2022-12-09T10:21:17.211Z,3.10
2022-12-09T10:23:46.009Z,3.00
2022-12-09T10:26:26.570Z,3.00
2022-12-09T10:29:15.659Z,3.00
2022-12-09T10:31:42.821Z,3.10
2022-12-09T10:34:12.043Z,3.10
2022-12-09T10:36:43.294Z,3.10
2022-12-09T10:39:22.944Z,3.20
2022-12-09T10:42:16.157Z,3.20
2022-12-09T10:44:43.171Z,3.30
2022-12-09T10:47:28.175Z,3.30
2022-12-09T10:49:55.641Z,3.40
2022-12-09T10:52:26.446Z,3.40
2022-12-09T10:54:53.733Z,3.40
2022-12-09T10:57:28.297Z,3.40
2022-12-09T11:00:27.161Z,3.40
2022-12-09T11:02:56.854Z,3.60
2022-12-09T11:05:25.747Z,3.90
2022-12-09T11:07:54.424Z,4.10
2022-12-09T11:10:29.567Z,4.30
2022-12-09T11:13:15.253Z,4.50
2022-12-09T11:15:50.322Z,4.50
2022-12-09T11:18:25.839Z,4.40
2022-12-09T11:20:59.279Z,4.40
2022-12-09T11:23:28.008Z,4.50
2022-12-09T11:26:06.813Z,4.60
2022-12-09T11:28:36.866Z,4.60
2022-12-09T11:31:32.745Z,4.60
2022-12-09T11:34:06.616Z,4.60
2022-12-09T11:36:37.117Z,4.50
2022-12-09T11:39:27.976Z,4.60
2022-12-09T11:42:19.974Z,4.60
2022-12-09T11:45:04.299Z,4.60
2022-12-09T11:48:13.460Z,4.60
2022-12-09T11:50:31.312Z,4.70
2022-12-09T11:53:11.849Z,4.70
2022-12-09T11:55:45.786Z,4.80
2022-12-09T11:58:18.777Z,4.80
2022-12-09T12:00:55.072Z,4.80
2022-12-09T12:03:29.909Z,4.90
2022-12-09T12:05:59.781Z,4.90
2022-12-09T12:08:47.309Z,4.90
2022-12-09T12:11:19.591Z,4.90
2022-12-09T12:13:54.074Z,4.80
2022-12-09T12:16:31.557Z,4.80
2022-12-09T12:19:17.532Z,4.60
2022-12-09T12:21:54.108Z,4.60
2022-12-09T12:24:51.738Z,4.70
2022-12-09T12:27:36.954Z,4.70
2022-12-09T12:30:15.714Z,4.70
2022-12-09T12:33:08.807Z,4.80
2022-12-09T12:36:11.795Z,4.80
2022-12-09T12:38:52.474Z,4.90
2022-12-09T12:41:57.182Z,4.90
2022-12-09T12:44:48.450Z,4.90
2022-12-09T12:47:44.242Z,4.90
2022-12-09T12:50:22.181Z,4.80
2022-12-09T12:53:14.437Z,4.70
2022-12-09T12:56:18.081Z,4.60
2022-12-09T12:58:50.414Z,4.50
2022-12-09T13:01:30.065Z,4.50
2022-12-09T13:03:59.575Z,4.40
2022-12-09T13:06:37.921Z,4.40
2022-12-09T13:09:11.682Z,4.50
2022-12-09T13:12:01.885Z,4.40
2022-12-09T13:14:52.176Z,4.40
2022-12-09T13:17:25.336Z,4.40
2022-12-09T13:19:55.129Z,4.50
2022-12-09T13:22:32.860Z,4.40
2022-12-09T13:25:24.066Z,4.50
2022-12-09T13:28:07.569Z,4.50
2022-12-09T13:30:54.429Z,4.50
2022-12-09T13:34:07.981Z,4.50
2022-12-09T13:36:40.905Z,4.40
2022-12-09T13:39:31.963Z,4.40
2022-12-09T13:42:17.150Z,4.50
2022-12-09T13:44:46.278Z,4.40
2022-12-09T13:47:23.436Z,4.50
2022-12-09T13:49:57.606Z,4.50
2022-12-09T13:52:49.264Z,4.50
2022-12-09T13:55:38.241Z,4.40
2022-12-09T13:58:13.906Z,4.40
2022-12-09T14:00:44.034Z,4.40
2022-12-09T14:03:32.159Z,4.50
2022-12-09T14:06:01.924Z,4.40
2022-12-09T14:08:38.767Z,4.40
2022-12-09T14:11:44.565Z,4.40
2022-12-09T14:14:23.426Z,4.40
2022-12-09T14:16:57.517Z,4.30
2022-12-09T14:19:24.303Z,4.30
2022-12-09T14:22:19.750Z,4.40
2022-12-09T14:24:49.305Z,4.40
2022-12-09T14:27:18.484Z,4.30
2022-12-09T14:29:51.367Z,4.30
2022-12-09T14:32:19.599Z,4.30
2022-12-09T14:34:49.462Z,4.30
2022-12-09T14:37:25.186Z,4.30
2022-12-09T14:39:58.995Z,4.20
2022-12-09T14:42:44.578Z,4.20
2022-12-09T14:45:37.438Z,4.10
2022-12-09T14:48:10.766Z,4.10
2022-12-09T14:50:38.732Z,4.10
2022-12-09T14:53:18.400Z,4.00
2022-12-09T14:55:45.213Z,4.00
2022-12-09T14:58:19.857Z,4.00
2022-12-09T15:00:47.302Z,4.00
2022-12-09T15:03:44.845Z,4.00
2022-12-09T15:06:17.230Z,3.90
2022-12-09T15:08:44.043Z,3.70
2022-12-09T15:11:20.693Z,3.70
2022-12-09T15:13:50.065Z,3.70
2022-12-09T15:16:24.824Z,3.70
2022-12-09T15:18:54.551Z,3.60
2022-12-09T15:21:32.475Z,3.50
2022-12-09T15:24:00.625Z,3.50
2022-12-09T15:26:29.810Z,3.40
2022-12-09T15:28:57.454Z,3.30
2022-12-09T15:31:27.000Z,3.30
2022-12-09T15:33:56.435Z,3.20
2022-12-09T15:36:30.142Z,3.20
2022-12-09T15:39:28.924Z,3.10
2022-12-09T15:42:10.687Z,3.00
2022-12-09T15:45:05.573Z,3.00
2022-12-09T15:47:38.785Z,2.90
2022-12-09T15:50:18.846Z,2.90
2022-12-09T15:53:00.013Z,2.90
2022-12-09T15:55:37.771Z,2.90
2022-12-09T15:58:12.495Z,2.80
2022-12-09T16:00:47.150Z,2.80
2022-12-09T16:03:18.614Z,2.80
2022-12-09T16:05:52.682Z,2.80
2022-12-09T16:08:19.908Z,2.80
2022-12-09T16:10:50.391Z,2.80
2022-12-09T16:13:19.099Z,2.70
2022-12-09T16:15:51.576Z,2.80
2022-12-09T16:18:22.507Z,2.70
2022-12-09T16:21:03.465Z,2.70
2022-12-09T16:23:30.196Z,2.70
2022-12-09T16:26:06.986Z,2.70
2022-12-09T16:28:34.659Z,2.70
2022-12-09T16:31:15.352Z,2.70
2022-12-09T16:33:48.570Z,2.70
2022-12-09T16:36:21.279Z,2.70
2022-12-09T16:39:09.670Z,2.70
2022-12-09T16:41:51.431Z,2.70
2022-12-09T16:44:27.520Z,2.70
2022-12-09T16:47:16.320Z,2.60
2022-12-09T16:49:47.013Z,2.60
2022-12-09T16:52:20.653Z,2.60
2022-12-09T16:54:49.292Z,2.70
2022-12-09T16:57:18.687Z,2.70
2022-12-09T16:59:46.133Z,2.60
2022-12-09T17:02:34.835Z,2.60
2022-12-09T17:05:01.672Z,2.60
2022-12-09T17:07:28.270Z,2.50
2022-12-09T17:09:54.972Z,2.50
2022-12-09T17:12:21.774Z,2.50
2022-12-09T17:14:48.782Z,2.50
2022-12-09T17:17:15.592Z,2.50
2022-12-09T17:19:42.674Z,2.50
2022-12-09T17:22:10.636Z,2.40
2022-12-09T17:24:37.774Z,2.40
2022-12-09T17:27:04.395Z,2.40
2022-12-09T17:29:31.101Z,2.40
2022-12-09T17:31:57.774Z,2.40
2022-12-09T17:34:24.477Z,2.40
2022-12-09T17:36:51.148Z,2.40
2022-12-09T17:39:17.893Z,2.40
2022-12-09T17:41:44.743Z,2.40
2022-12-09T17:44:11.566Z,2.30
2022-12-09T17:46:38.197Z,2.30
2022-12-09T17:49:04.844Z,2.40
2022-12-09T17:51:36.028Z,2.30
2022-12-09T17:54:03.692Z,2.30
2022-12-09T17:56:30.357Z,2.20
2022-12-09T17:59:00.828Z,2.20
2022-12-09T18:01:27.640Z,2.20
2022-12-09T18:04:02.884Z,2.20
2022-12-09T18:06:34.203Z,2.20
2022-12-09T18:09:02.150Z,2.20
2022-12-09T18:11:28.807Z,2.20
2022-12-09T18:13:55.485Z,2.20
2022-12-09T18:16:22.173Z,2.20
2022-12-09T18:18:48.921Z,2.20
2022-12-09T18:21:16.632Z,2.20
2022-12-09T18:23:43.369Z,2.10
2022-12-09T18:26:13.265Z,2.10
2022-12-09T18:28:40.319Z,2.10
2022-12-09T18:31:08.679Z,2.10
2022-12-09T18:33:37.795Z,2.10
2022-12-09T18:36:19.431Z,2.10
2022-12-09T18:38:46.417Z,2.10
2022-12-09T18:41:22.297Z,2.10
2022-12-09T18:43:50.875Z,2.10
2022-12-09T18:46:25.161Z,2.10
2022-12-09T18:48:57.645Z,2.10
2022-12-09T18:51:24.497Z,2.10
2022-12-09T18:53:51.430Z,2.00
2022-12-09T18:56:18.097Z,2.00
2022-12-09T18:59:05.512Z,2.00
2022-12-09T19:01:32.799Z,2.00
2022-12-09T19:04:03.804Z,2.00
2022-12-09T19:06:35.526Z,2.00
2022-12-09T19:09:06.766Z,1.90
2022-12-09T19:11:37.257Z,1.90
2022-12-09T19:14:05.877Z,1.90
2022-12-09T19:16:32.764Z,1.90
2022-12-09T19:19:05.331Z,1.90
2022-12-09T19:21:34.224Z,1.90
2022-12-09T19:24:00.898Z,1.90
2022-12-09T19:26:30.366Z,1.90
2022-12-09T19:28:59.607Z,1.90
2022-12-09T19:31:29.158Z,1.90
2022-12-09T19:33:57.994Z,1.90
2022-12-09T19:36:26.466Z,1.90
2022-12-09T19:38:53.579Z,1.90
2022-12-09T19:41:21.043Z,1.90
2022-12-09T19:43:47.965Z,1.90
2022-12-09T19:46:15.593Z,1.90
2022-12-09T19:48:46.478Z,1.90
2022-12-09T19:51:16.063Z,1.80
2022-12-09T19:53:43.434Z,1.80
2022-12-09T19:56:15.412Z,1.80
2022-12-09T19:58:42.602Z,1.80
2022-12-09T20:01:16.403Z,1.80
2022-12-09T20:03:44.942Z,1.80
2022-12-09T20:06:13.591Z,1.80
2022-12-09T20:08:40.470Z,1.80
2022-12-09T20:11:13.356Z,1.80
2022-12-09T20:13:40.418Z,1.80
2022-12-09T20:16:09.704Z,1.80
2022-12-09T20:18:36.841Z,1.80
2022-12-09T20:21:05.354Z,1.70
2022-12-09T20:23:32.223Z,1.70
2022-12-09T20:26:10.386Z,1.70
2022-12-09T20:28:38.534Z,1.70
2022-12-09T20:31:12.111Z,1.70
2022-12-09T20:33:39.471Z,1.70
2022-12-09T20:36:14.256Z,1.70
2022-12-09T20:38:41.034Z,1.70
2022-12-09T20:41:11.114Z,1.70
2022-12-09T20:43:42.219Z,1.70
2022-12-09T20:46:14.559Z,1.70
2022-12-09T20:48:42.134Z,1.70
2022-12-09T20:51:20.479Z,1.70
2022-12-09T20:53:48.550Z,1.60
2022-12-09T20:56:16.354Z,1.60
2022-12-09T20:58:44.434Z,1.60
2022-12-09T21:01:17.624Z,1.60
2022-12-09T21:03:45.059Z,1.60
2022-12-09T21:06:13.700Z,1.60
2022-12-09T21:08:40.864Z,1.70
2022-12-09T21:11:14.811Z,1.70
2022-12-09T21:13:43.904Z,1.80
2022-12-09T21:16:22.266Z,1.80
2022-12-09T21:18:51.006Z,1.80
2022-12-09T21:21:18.912Z,1.80
2022-12-09T21:23:45.842Z,1.70
2022-12-09T21:26:14.855Z,1.70
2022-12-09T21:28:42.646Z,1.80
2022-12-09T21:31:18.210Z,1.70
2022-12-09T21:33:46.885Z,1.60
2022-12-09T21:36:16.438Z,1.80
2022-12-09T21:38:43.294Z,1.90
2022-12-09T21:41:18.510Z,2.00
2022-12-09T21:43:45.685Z,1.90
2022-12-09T21:46:15.037Z,1.90
2022-12-09T21:48:42.236Z,1.80
2022-12-09T21:51:11.073Z,1.90
2022-12-09T21:53:38.450Z,1.90
2022-12-09T21:56:07.775Z,1.90
2022-12-09T21:58:35.178Z,2.00
2022-12-09T22:01:31.606Z,1.90
2022-12-09T22:04:00.214Z,1.90
2022-12-09T22:06:28.232Z,1.90
2022-12-09T22:08:54.876Z,1.90
2022-12-09T22:11:25.535Z,1.90
2022-12-09T22:13:55.178Z,1.90
2022-12-09T22:16:25.759Z,1.90
2022-12-09T22:18:55.059Z,2.00
2022-12-09T22:21:25.063Z,2.00
2022-12-09T22:23:57.688Z,2.00
2022-12-09T22:26:26.370Z,1.90
2022-12-09T22:28:53.743Z,1.90
2022-12-09T22:31:26.340Z,1.90
2022-12-09T22:33:55.068Z,1.80
2022-12-09T22:36:22.487Z,1.80
2022-12-09T22:38:50.044Z,1.80
2022-12-09T22:41:20.016Z,1.80
2022-12-09T22:43:48.174Z,1.70
2022-12-09T22:46:20.810Z,1.70
2022-12-09T22:48:48.272Z,1.70
2022-12-09T22:51:27.671Z,1.70
2022-12-09T22:53:56.202Z,1.70
2022-12-09T22:56:24.310Z,1.70
2022-12-09T22:58:51.243Z,1.60
2022-12-09T23:01:21.277Z,1.60
2022-12-09T23:03:48.214Z,1.60
2022-12-09T23:06:14.999Z,1.60
2022-12-09T23:08:43.489Z,1.50
2022-12-09T23:11:24.674Z,1.50
2022-12-09T23:13:52.112Z,1.50
2022-12-09T23:16:24.035Z,1.50
2022-12-09T23:18:51.374Z,1.50
2022-12-09T23:21:24.135Z,1.60
2022-12-09T23:23:56.344Z,1.60
2022-12-09T23:26:25.631Z,1.60
2022-12-09T23:28:54.428Z,1.50
2022-12-09T23:31:24.867Z,1.60
2022-12-09T23:33:53.182Z,1.60
2022-12-09T23:36:22.541Z,1.60
2022-12-09T23:38:49.812Z,1.60
2022-12-09T23:41:19.240Z,1.60
2022-12-09T23:43:47.663Z,1.50
2022-12-09T23:46:17.843Z,1.50
2022-12-09T23:48:45.252Z,1.50
2022-12-09T23:51:21.144Z,1.60
2022-12-09T23:53:49.647Z,1.60
2022-12-09T23:56:22.722Z,1.50
2022-12-09T23:58:57.260Z,1.50
